Time;durP1;ratioP1;P1;durP2;ratioP2;P2;SDS_P1;SDS_P2;PMS_P1;PMS_P2;Temp;Humidity;BMP_temperature;BMP_pressure;BME280_temperature;BME280_humidity;BME280_pressure;Samples;Min_cycle;Max_cycle;Signal;HPM_P1;HPM_P2
2021/09/08 00:08:17;;;;;;;0.30;0.22;;;23.00;99.90;;;;;;20697643;28;20223;-66
2021/09/08 00:18:22;;;;;;;0.82;0.57;;;22.90;99.90;;;;;;20694204;28;20246;-65
2021/09/08 00:28:26;;;;;;;0.30;0.28;;;22.80;99.90;;;;;;20697739;28;20191;-65
2021/09/08 00:38:31;;;;;;;0.20;0.10;;;22.80;99.90;;;;;;20690692;28;20218;-64
2021/09/08 00:48:34;;;;;;;7.47;1.65;;;22.70;99.90;;;;;;20694900;28;20275;-65
2021/09/08 00:58:40;;;;;;;0.20;0.10;;;22.60;99.90;;;;;;20682566;28;20238;-65
2021/09/08 01:08:46;;;;;;;0.35;0.35;;;22.60;99.90;;;;;;20699502;28;20222;-66
2021/09/08 01:18:51;;;;;;;0.33;0.33;;;22.50;99.90;;;;;;20710878;28;20210;-67
2021/09/08 01:28:56;;;;;;;4.35;1.27;;;22.60;99.90;;;;;;20707771;28;20195;-66
2021/09/08 01:38:59;;;;;;;0.20;0.13;;;22.50;99.90;;;;;;20706633;28;20215;-66
2021/09/08 01:49:04;;;;;;;5.78;1.27;;;22.50;99.90;;;;;;20706571;28;20191;-67
2021/09/08 01:59:08;;;;;;;2.00;1.48;;;22.60;99.90;;;;;;20707883;28;20241;-65
2021/09/08 02:09:15;;;;;;;0.45;0.40;;;22.70;99.90;;;;;;20705245;28;20223;-65
2021/09/08 02:19:19;;;;;;;0.98;0.55;;;22.70;99.90;;;;;;20706831;28;20310;-66
2021/09/08 02:29:24;;;;;;;0.60;0.43;;;22.70;99.90;;;;;;20704522;28;20310;-65
2021/09/08 02:39:28;;;;;;;0.30;0.30;;;22.60;99.90;;;;;;20698492;28;20222;-65
2021/09/08 02:49:33;;;;;;;0.35;0.32;;;22.60;99.90;;;;;;20702891;28;20230;-66
2021/09/08 02:59:36;;;;;;;0.38;0.35;;;22.50;99.90;;;;;;20704502;28;20679;-66
2021/09/08 03:09:42;;;;;;;0.73;0.47;;;22.60;99.90;;;;;;20621864;28;20555;-65
2021/09/08 03:19:46;;;;;;;0.20;0.20;;;22.60;99.90;;;;;;20621009;28;20222;-65
2021/09/08 03:29:51;;;;;;;0.20;0.00;;;22.50;99.90;;;;;;20603105;28;20683;-66
2021/09/08 03:39:56;;;;;;;0.50;0.47;;;22.60;99.90;;;;;;20681896;28;20229;-67
2021/09/08 03:50:01;;;;;;;0.40;0.28;;;22.30;99.90;;;;;;20700470;28;20199;-66
2021/09/08 04:00:06;;;;;;;0.30;0.28;;;22.20;99.90;;;;;;20702849;28;20229;-67
2021/09/08 04:10:12;;;;;;;0.38;0.38;;;22.10;99.90;;;;;;20762192;28;20218;-66
2021/09/08 04:20:16;;;;;;;1.20;1.07;;;22.00;99.90;;;;;;20714610;28;20285;-66
2021/09/08 04:30:21;;;;;;;0.55;0.50;;;22.00;99.90;;;;;;20700337;28;20199;-65
2021/09/08 04:40:24;;;;;;;0.30;0.30;;;21.90;99.90;;;;;;20700684;28;20227;-66
2021/09/08 04:50:29;;;;;;;1.27;1.17;;;21.70;99.90;;;;;;20710626;28;20198;-66
2021/09/08 05:00:33;;;;;;;0.53;0.43;;;22.00;99.90;;;;;;20711820;28;20834;-65
2021/09/08 05:10:39;;;;;;;0.60;0.40;;;22.10;99.90;;;;;;20711695;28;20199;-66
2021/09/08 05:20:44;;;;;;;7.87;0.93;;;21.80;99.90;;;;;;20703288;28;20775;-65
2021/09/08 05:30:49;;;;;;;0.20;0.20;;;21.90;99.90;;;;;;20710344;28;20281;-64
2021/09/08 05:40:53;;;;;;;0.20;0.20;;;21.90;99.90;;;;;;20708340;28;20595;-67
2021/09/08 05:50:58;;;;;;;0.40;0.37;;;21.90;99.90;;;;;;20706576;28;20293;-67
2021/09/08 06:01:02;;;;;;;0.40;0.40;;;22.10;99.90;;;;;;20708170;28;20242;-67
2021/09/08 06:11:08;;;;;;;0.60;0.60;;;22.20;99.90;;;;;;20703782;28;20209;-66
2021/09/08 06:21:12;;;;;;;0.55;0.52;;;22.40;99.90;;;;;;20706089;28;20226;-66
2021/09/08 06:31:18;;;;;;;0.35;0.32;;;22.80;99.90;;;;;;20649822;28;20202;-66
2021/09/08 06:41:21;;;;;;;1.30;1.20;;;23.00;99.90;;;;;;20624721;28;20258;-68
2021/09/08 06:51:26;;;;;;;1.15;1.05;;;23.30;99.90;;;;;;20625375;28;20199;-67
2021/09/08 07:01:30;;;;;;;1.00;0.57;;;23.70;99.90;;;;;;20617935;28;20239;-66
2021/09/08 07:11:35;;;;;;;0.88;0.88;;;24.20;99.90;;;;;;20618021;28;20203;-67
2021/09/08 07:21:39;;;;;;;0.28;0.20;;;24.70;99.90;;;;;;20631121;28;20219;-66
2021/09/08 07:31:44;;;;;;;5.60;0.95;;;25.10;99.90;;;;;;20682222;28;20187;-64
2021/09/08 07:41:48;;;;;;;3.58;1.33;;;25.50;99.90;;;;;;20682723;28;20537;-66
2021/09/08 07:51:53;;;;;;;0.73;0.70;;;25.80;99.90;;;;;;20696642;28;20206;-64
2021/09/08 08:01:56;;;;;;;0.30;0.30;;;26.10;99.90;;;;;;20698129;28;20239;-67
2021/09/08 08:12:02;;;;;;;1.35;1.00;;;26.40;99.90;;;;;;20682585;28;20194;-67
2021/09/08 08:22:06;;;;;;;0.20;0.00;;;26.60;99.90;;;;;;20692743;28;20294;-66
2021/09/08 08:32:13;;;;;;;0.30;0.20;;;26.40;99.90;;;;;;20676908;28;20191;-68
2021/09/08 08:42:22;;;;;;;1.48;1.38;;;26.60;99.90;;;;;;20694643;28;20224;-67
2021/09/08 08:52:27;;;;;;;0.40;0.40;;;27.10;99.90;;;;;;20696374;28;20594;-67
2021/09/08 09:02:33;;;;;;;1.73;0.65;;;27.30;99.90;;;;;;20694790;28;20236;-67
2021/09/08 09:12:40;;;;;;;0.50;0.50;;;27.40;99.90;;;;;;20697846;28;20260;-69
2021/09/08 09:22:46;;;;;;;0.85;0.85;;;27.50;99.90;;;;;;20679915;28;20320;-66
2021/09/08 09:32:54;;;;;;;0.20;0.00;;;27.80;99.90;;;;;;20700291;28;20683;-68
2021/09/08 09:43:03;;;;;;;0.20;0.10;;;28.10;99.90;;;;;;20707956;28;20284;-67
2021/09/08 09:53:08;;;;;;;0.88;0.88;;;28.00;99.90;;;;;;20706477;28;20822;-68
2021/09/08 10:03:12;;;;;;;1.05;0.80;;;28.30;99.90;;;;;;20688395;28;20245;-68
2021/09/08 10:13:21;;;;;;;0.80;0.63;;;28.40;99.90;;;;;;20704798;28;20199;-68
2021/09/08 10:23:25;;;;;;;1.17;1.08;;;28.50;99.90;;;;;;20702656;28;20231;-68
2021/09/08 10:33:32;;;;;;;0.73;0.73;;;28.80;99.90;;;;;;20702265;28;20207;-68
2021/09/08 10:43:38;;;;;;;1.23;1.13;;;29.60;99.90;;;;;;20701188;28;20223;-67
2021/09/08 10:53:43;;;;;;;0.95;0.85;;;30.20;99.90;;;;;;20705539;28;20199;-68
2021/09/08 11:03:47;;;;;;;0.70;0.70;;;30.80;99.90;;;;;;20704123;28;20711;-68
2021/09/08 11:13:54;;;;;;;3.13;0.73;;;30.40;99.90;;;;;;20682519;28;20202;-67
2021/09/08 11:23:59;;;;;;;0.80;0.50;;;30.80;99.90;;;;;;20682812;28;20230;-69
2021/09/08 11:34:05;;;;;;;0.65;0.65;;;30.20;99.90;;;;;;20693767;28;20285;-67
2021/09/08 11:44:09;;;;;;;1.10;0.65;;;32.10;99.90;;;;;;20688651;28;20258;-68
2021/09/08 11:54:18;;;;;;;0.57;0.35;;;33.10;99.90;;;;;;20691630;28;20668;-66
2021/09/08 12:04:25;;;;;;;0.90;0.90;;;32.90;99.90;;;;;;20695001;28;20230;-68
2021/09/08 12:14:42;;;;;;;1.23;1.17;;;33.70;99.90;;;;;;20695580;28;21004;-68
2021/09/08 12:24:46;;;;;;;0.77;0.77;;;33.40;99.90;;;;;;20678175;28;20602;-68
2021/09/08 12:34:52;;;;;;;1.05;0.73;;;30.70;99.90;;;;;;20697498;28;20218;-67
2021/09/08 12:45:07;;;;;;;0.93;0.80;;;33.00;99.90;;;;;;20678485;28;20309;-67
2021/09/08 12:55:13;;;;;;;1.58;1.40;;;33.90;99.90;;;;;;20692798;28;20226;-65
2021/09/08 13:05:17;;;;;;;2.10;1.25;;;33.80;99.90;;;;;;20692994;28;20238;-66
2021/09/08 13:15:23;;;;;;;2.05;1.08;;;34.40;99.90;;;;;;20721460;28;20226;-66
2021/09/08 13:25:26;;;;;;;1.77;1.48;;;33.60;99.90;;;;;;20691625;28;20289;-67
2021/09/08 13:35:31;;;;;;;0.75;0.70;;;33.10;99.90;;;;;;20708164;28;20665;-66
2021/09/08 13:45:35;;;;;;;0.98;0.73;;;32.40;99.90;;;;;;20684201;28;20187;-67
2021/09/08 13:55:41;;;;;;;1.08;1.08;;;34.40;99.90;;;;;;20667104;28;20277;-67
2021/09/08 14:05:45;;;;;;;3.65;1.35;;;33.90;99.90;;;;;;20700704;28;20219;-67
2021/09/08 14:15:50;;;;;;;1.60;1.50;;;36.20;99.90;;;;;;20699641;28;20365;-67
2021/09/08 14:25:55;;;;;;;1.02;0.77;;;33.20;99.90;;;;;;20699036;28;20230;-67
2021/09/08 14:36:01;;;;;;;3.13;1.70;;;32.60;99.90;;;;;;20685090;28;20226;-67
2021/09/08 14:46:04;;;;;;;2.30;1.42;;;31.90;99.90;;;;;;20682493;28;20201;-65
2021/09/08 14:56:10;;;;;;;1.45;1.30;;;30.40;99.90;;;;;;20702368;28;20257;-66
2021/09/08 15:06:14;;;;;;;1.20;1.10;;;30.70;99.90;;;;;;20702430;28;20225;-67
2021/09/08 15:16:19;;;;;;;1.67;1.17;;;32.40;99.90;;;;;;20702664;28;20218;-67
2021/09/08 15:26:23;;;;;;;1.70;1.50;;;32.90;99.90;;;;;;20702003;28;20276;-67
2021/09/08 15:36:30;;;;;;;2.00;1.30;;;33.50;99.90;;;;;;20735468;28;20541;-70
2021/09/08 15:46:34;;;;;;;2.40;1.20;;;31.90;99.90;;;;;;20780243;28;20872;-68
2021/09/08 15:56:39;;;;;;;2.58;1.05;;;31.00;99.90;;;;;;20778993;28;20226;-68
2021/09/08 16:06:43;;;;;;;1.50;1.23;;;30.40;99.90;;;;;;20777823;28;20232;-68
2021/09/08 16:16:50;;;;;;;1.60;1.00;;;29.90;99.90;;;;;;20773185;28;20454;-66
2021/09/08 16:26:53;;;;;;;1.30;1.05;;;29.70;99.90;;;;;;20703183;28;20195;-68
2021/09/08 16:36:58;;;;;;;1.20;0.55;;;29.10;99.90;;;;;;20681065;28;20230;-67
2021/09/08 16:47:03;;;;;;;2.35;1.27;;;28.90;99.90;;;;;;20696026;28;20214;-67
2021/09/08 16:57:11;;;;;;;1.38;1.23;;;28.80;99.90;;;;;;20692878;28;20683;-67
2021/09/08 17:07:14;;;;;;;2.10;1.08;;;28.20;99.90;;;;;;20693027;28;20547;-68
2021/09/08 17:17:19;;;;;;;1.55;0.65;;;27.50;99.90;;;;;;20694109;28;20218;-66
2021/09/08 17:27:23;;;;;;;1.85;0.77;;;27.60;99.90;;;;;;20694179;28;20230;-64
2021/09/08 17:37:28;;;;;;;0.90;0.77;;;27.70;99.90;;;;;;20685920;28;20337;-67
2021/09/08 17:47:32;;;;;;;0.55;0.55;;;27.20;99.90;;;;;;20675114;28;20274;-66
2021/09/08 17:57:38;;;;;;;0.70;0.70;;;27.30;99.90;;;;;;20684297;28;20333;-66
2021/09/08 18:07:42;;;;;;;1.98;0.90;;;26.80;99.90;;;;;;20699003;28;20236;-64
2021/09/08 18:17:48;;;;;;;1.05;0.95;;;26.80;99.90;;;;;;20702889;28;20292;-65
2021/09/08 18:27:52;;;;;;;3.45;1.83;;;26.80;99.90;;;;;;20699193;28;20199;-65
2021/09/08 18:37:59;;;;;;;2.55;1.65;;;26.50;99.90;;;;;;20745832;28;20311;-65
2021/09/08 18:48:03;;;;;;;1.50;1.17;;;26.30;99.90;;;;;;20782706;28;20195;-64
2021/09/08 18:58:09;;;;;;;0.65;0.60;;;26.30;99.90;;;;;;20782474;28;20230;-65
2021/09/08 19:08:12;;;;;;;3.22;1.17;;;26.20;99.90;;;;;;20782207;28;20229;-67
2021/09/08 19:18:18;;;;;;;1.85;1.17;;;26.30;99.90;;;;;;20763087;28;20229;-65
2021/09/08 19:28:22;;;;;;;5.25;0.98;;;26.20;99.90;;;;;;20699382;28;20454;-66
2021/09/08 19:38:27;;;;;;;3.53;1.38;;;26.20;99.90;;;;;;20689448;28;20672;-66
2021/09/08 19:48:31;;;;;;;0.65;0.65;;;26.00;99.90;;;;;;20697514;28;20207;-67
2021/09/08 19:58:36;;;;;;;0.60;0.57;;;26.20;99.90;;;;;;20696710;28;20234;-69
2021/09/08 20:08:40;;;;;;;23.33;1.83;;;26.10;99.90;;;;;;20700494;28;20377;-65
2021/09/08 20:18:56;;;;;;;2.25;1.77;;;26.10;99.90;;;;;;20676584;28;20288;-66
2021/09/08 20:29:02;;;;;;;1.55;1.33;;;26.00;99.90;;;;;;20695401;28;20198;-69
2021/09/08 20:39:08;;;;;;;1.02;0.85;;;25.90;99.90;;;;;;20734999;28;20272;-67
2021/09/08 20:49:12;;;;;;;1.00;1.00;;;25.80;99.90;;;;;;20689405;28;20534;-65
2021/09/08 20:59:17;;;;;;;2.65;1.33;;;25.90;99.90;;;;;;20693168;28;20234;-65
2021/09/08 21:09:21;;;;;;;1.05;0.90;;;25.80;99.90;;;;;;20673648;28;20249;-66
2021/09/08 21:19:26;;;;;;;4.32;0.90;;;25.70;99.90;;;;;;20674142;28;20219;-66
2021/09/08 21:39:48;;;;;;;1.55;1.45;;;25.60;99.90;;;;;;21391881;23;20235;-70
2021/09/08 21:49:52;;;;;;;1.13;1.02;;;25.50;99.90;;;;;;20630512;28;20608;-71
2021/09/08 21:59:57;;;;;;;5.88;1.67;;;25.50;99.90;;;;;;20627853;28;20242;-71
2021/09/08 22:10:01;;;;;;;2.38;2.17;;;25.40;99.90;;;;;;20628475;28;20202;-69
2021/09/08 22:20:07;;;;;;;2.10;1.77;;;25.60;99.90;;;;;;20623629;28;20223;-69
2021/09/08 22:30:13;;;;;;;1.60;0.90;;;25.50;99.90;;;;;;20624978;28;20660;-69
2021/09/08 22:40:22;;;;;;;0.95;0.77;;;25.40;99.90;;;;;;20621845;28;21133;-68
2021/09/08 22:50:26;;;;;;;1.73;1.35;;;25.50;99.90;;;;;;20621223;28;20192;-68
2021/09/08 23:00:31;;;;;;;1.20;0.75;;;25.50;99.90;;;;;;20621247;28;20223;-68
2021/09/08 23:10:41;;;;;;;2.00;0.85;;;25.40;99.90;;;;;;20619111;28;20936;-68
2021/09/08 23:20:47;;;;;;;2.25;0.93;;;25.40;99.90;;;;;;20620417;28;20228;-68
2021/09/08 23:30:50;;;;;;;3.45;1.88;;;25.50;99.90;;;;;;20619022;28;20268;-68
2021/09/08 23:40:57;;;;;;;1.23;0.85;;;25.60;99.90;;;;;;20618438;28;20242;-69
2021/09/08 23:51:01;;;;;;;2.35;1.60;;;25.50;99.90;;;;;;20620820;28;20204;-71
